Time;durP1;ratioP1;P1;durP2;ratioP2;P2;SDS_P1;SDS_P2;PMS_P1;PMS_P2;Temp;Humidity;BMP_temperature;BMP_pressure;BME280_temperature;BME280_humidity;BME280_pressure;Samples;Min_cycle;Max_cycle;Signal;HPM_P1;HPM_P2
2023/08/03 00:00:32;;;;;;;9.20;1.10;;;16.30;99.90;;;;;;5090885;28;20181;-74
2023/08/03 00:02:57;;;;;;;5.47;1.50;;;16.20;99.90;;;;;;5090385;28;20230;-74
2023/08/03 00:05:24;;;;;;;1.70;1.07;;;16.20;99.90;;;;;;5084230;28;20557;-74
2023/08/03 00:07:50;;;;;;;6.67;2.03;;;16.20;99.90;;;;;;5080585;28;20188;-74
2023/08/03 00:10:18;;;;;;;8.07;1.90;;;16.20;99.90;;;;;;5084252;28;20419;-74
2023/08/03 00:12:45;;;;;;;19.07;1.77;;;16.30;99.90;;;;;;5088698;28;20414;-74
2023/08/03 00:15:12;;;;;;;6.63;1.80;;;16.30;99.90;;;;;;5089893;28;20495;-74
2023/08/03 00:17:38;;;;;;;4.63;1.30;;;16.30;99.90;;;;;;5090309;28;20425;-74
2023/08/03 00:20:05;;;;;;;5.20;1.30;;;16.40;99.90;;;;;;5082694;28;20418;-74
2023/08/03 00:22:32;;;;;;;2.53;1.13;;;16.30;99.90;;;;;;5090215;28;20430;-75
2023/08/03 00:24:58;;;;;;;3.17;1.23;;;16.30;99.90;;;;;;5090258;28;20836;-75
2023/08/03 00:27:24;;;;;;;10.93;1.73;;;16.30;99.90;;;;;;5089973;28;20501;-74
2023/08/03 00:29:50;;;;;;;11.80;1.40;;;16.40;99.90;;;;;;5090222;28;20629;-74
2023/08/03 00:32:15;;;;;;;2.93;1.10;;;16.40;99.90;;;;;;5077536;28;20434;-74
2023/08/03 00:34:41;;;;;;;3.23;1.67;;;16.50;99.90;;;;;;5089894;28;20253;-75
2023/08/03 00:37:07;;;;;;;3.73;1.00;;;16.40;99.90;;;;;;5090693;28;20180;-74
2023/08/03 00:39:32;;;;;;;6.37;1.57;;;16.50;99.90;;;;;;5083548;28;20831;-74
2023/08/03 00:41:58;;;;;;;7.40;2.10;;;16.50;99.90;;;;;;5085675;28;20190;-74
2023/08/03 00:44:24;;;;;;;2.23;1.00;;;16.50;99.90;;;;;;5089855;28;20684;-74
2023/08/03 00:46:49;;;;;;;14.77;2.20;;;16.50;99.90;;;;;;5089869;28;20185;-75
2023/08/03 00:49:15;;;;;;;3.87;1.27;;;16.50;99.90;;;;;;5090388;28;20284;-74
2023/08/03 00:51:40;;;;;;;6.30;1.53;;;16.50;99.90;;;;;;5078532;28;20528;-74
2023/08/03 00:54:07;;;;;;;4.40;1.70;;;16.50;99.90;;;;;;5080059;28;20181;-75
2023/08/03 00:56:36;;;;;;;16.10;2.10;;;16.60;99.90;;;;;;5082813;28;20219;-74
2023/08/03 00:59:06;;;;;;;5.37;1.47;;;16.50;99.90;;;;;;5087329;28;20429;-74
2023/08/03 01:01:32;;;;;;;2.93;1.10;;;16.60;99.90;;;;;;5086250;28;20422;-75
2023/08/03 01:03:58;;;;;;;10.73;1.60;;;16.60;99.90;;;;;;5081548;28;20799;-74
2023/08/03 01:06:24;;;;;;;8.13;1.60;;;16.50;99.90;;;;;;5089090;28;20222;-75
2023/08/03 01:08:50;;;;;;;6.17;2.20;;;16.50;99.90;;;;;;5077837;28;20201;-74
2023/08/03 01:11:16;;;;;;;4.50;1.37;;;16.40;99.90;;;;;;5085744;28;20411;-75
2023/08/03 01:13:41;;;;;;;6.90;2.20;;;16.50;99.90;;;;;;5089809;28;20187;-73
2023/08/03 01:16:09;;;;;;;8.87;2.30;;;16.50;99.90;;;;;;5093669;28;20204;-74
2023/08/03 01:18:42;;;;;;;6.83;1.90;;;16.50;99.90;;;;;;5085230;28;20508;-74
2023/08/03 01:21:08;;;;;;;7.00;1.63;;;16.60;99.90;;;;;;5085303;28;20438;-74
2023/08/03 01:23:34;;;;;;;2.70;1.07;;;16.60;99.90;;;;;;5087526;28;20549;-74
2023/08/03 01:25:59;;;;;;;3.57;1.37;;;16.50;99.90;;;;;;5093294;28;20505;-75
2023/08/03 01:28:25;;;;;;;14.13;1.47;;;16.50;99.90;;;;;;5090281;28;20511;-74
2023/08/03 01:30:51;;;;;;;13.00;1.20;;;16.50;99.90;;;;;;5091378;28;20195;-74
2023/08/03 01:33:16;;;;;;;5.57;1.30;;;16.60;99.90;;;;;;5093357;28;20626;-75
2023/08/03 01:35:42;;;;;;;2.70;1.13;;;16.60;99.90;;;;;;5093399;28;20179;-74
2023/08/03 01:38:08;;;;;;;3.83;1.33;;;16.60;99.90;;;;;;5093489;28;20229;-74
2023/08/03 01:40:33;;;;;;;15.07;1.23;;;16.60;99.90;;;;;;5093433;28;20176;-74
2023/08/03 01:42:59;;;;;;;2.83;1.20;;;16.60;99.90;;;;;;5092485;28;20277;-74
2023/08/03 01:45:25;;;;;;;11.70;1.50;;;16.60;99.90;;;;;;5093079;28;20184;-75
2023/08/03 01:47:50;;;;;;;8.43;1.10;;;16.60;99.90;;;;;;5089664;28;20183;-75
2023/08/03 01:50:16;;;;;;;9.23;1.50;;;16.60;99.90;;;;;;5093124;28;20199;-75
2023/08/03 01:52:41;;;;;;;6.07;1.40;;;16.50;99.90;;;;;;5084144;28;20172;-74
2023/08/03 01:55:07;;;;;;;3.67;1.40;;;16.50;99.90;;;;;;5092529;28;20181;-75
2023/08/03 01:57:33;;;;;;;2.40;0.90;;;16.40;99.90;;;;;;5092744;28;20204;-74
2023/08/03 01:59:58;;;;;;;6.00;1.07;;;16.30;99.90;;;;;;5093110;28;20184;-76
2023/08/03 02:02:24;;;;;;;4.57;1.40;;;16.30;99.90;;;;;;5093222;28;20181;-74
2023/08/03 02:04:50;;;;;;;2.47;1.07;;;16.30;99.90;;;;;;5090551;28;20277;-74
2023/08/03 02:07:17;;;;;;;4.60;1.53;;;16.30;99.90;;;;;;5078447;28;20672;-75
2023/08/03 02:09:43;;;;;;;6.93;1.00;;;16.40;99.90;;;;;;5085467;28;20183;-75
2023/08/03 02:12:09;;;;;;;4.20;1.80;;;16.30;99.90;;;;;;5089229;28;20819;-75
2023/08/03 02:14:35;;;;;;;8.10;1.90;;;16.30;99.90;;;;;;5070706;28;20200;-76
2023/08/03 02:17:01;;;;;;;3.23;1.13;;;16.30;99.90;;;;;;5092930;28;20194;-75
2023/08/03 02:19:26;;;;;;;8.23;2.07;;;16.30;99.90;;;;;;5089523;28;21060;-74
2023/08/03 02:21:52;;;;;;;6.83;1.60;;;16.20;99.90;;;;;;5092731;28;20199;-75
2023/08/03 02:24:18;;;;;;;7.10;1.63;;;16.10;99.90;;;;;;5091614;28;20545;-75
2023/08/03 02:26:43;;;;;;;4.17;1.60;;;16.20;99.90;;;;;;5092361;28;20233;-75
2023/08/03 02:29:09;;;;;;;3.47;1.00;;;16.20;99.90;;;;;;5088581;28;20252;-75
2023/08/03 02:31:35;;;;;;;7.90;1.33;;;16.10;99.90;;;;;;5093258;28;20630;-75
2023/08/03 02:34:00;;;;;;;10.83;1.60;;;16.10;99.90;;;;;;5091091;28;20242;-75
2023/08/03 02:36:26;;;;;;;2.77;0.93;;;16.00;99.90;;;;;;5092466;28;20735;-75
2023/08/03 02:38:51;;;;;;;4.77;1.30;;;16.10;99.90;;;;;;5091058;28;20195;-76
2023/08/03 02:41:17;;;;;;;9.20;1.70;;;16.10;99.90;;;;;;5092556;28;20230;-76
2023/08/03 02:43:43;;;;;;;5.90;1.40;;;16.10;99.90;;;;;;5086673;28;20240;-76
2023/08/03 02:46:08;;;;;;;23.57;1.87;;;16.00;99.90;;;;;;5092647;28;20180;-75
2023/08/03 02:48:34;;;;;;;9.37;1.90;;;16.00;99.90;;;;;;5090534;28;20192;-74
2023/08/03 02:50:59;;;;;;;2.77;1.20;;;16.00;99.90;;;;;;5093101;28;20192;-74
2023/08/03 02:53:25;;;;;;;10.60;1.17;;;16.00;99.90;;;;;;5093481;28;20176;-75
2023/08/03 02:55:51;;;;;;;3.00;1.27;;;16.00;99.90;;;;;;5094693;28;20188;-75
2023/08/03 02:58:17;;;;;;;11.47;1.47;;;16.00;99.90;;;;;;5085894;28;20181;-74
2023/08/03 03:00:42;;;;;;;6.40;1.53;;;16.00;99.90;;;;;;5090216;28;20181;-75
2023/08/03 03:03:08;;;;;;;6.70;1.23;;;16.00;99.90;;;;;;5091351;28;20615;-75
2023/08/03 03:05:34;;;;;;;2.90;1.40;;;15.90;99.90;;;;;;5074270;28;20218;-75
2023/08/03 03:07:59;;;;;;;3.00;0.90;;;16.00;99.90;;;;;;5089651;28;20333;-75
2023/08/03 03:10:25;;;;;;;7.60;1.87;;;16.00;99.90;;;;;;5085594;28;20207;-75
2023/08/03 03:12:51;;;;;;;11.30;1.90;;;16.00;99.90;;;;;;5089959;28;20553;-75
2023/08/03 03:15:16;;;;;;;9.67;2.53;;;16.00;99.90;;;;;;5090492;28;20286;-75
2023/08/03 03:17:42;;;;;;;2.03;1.10;;;16.00;99.90;;;;;;5091271;28;20223;-75
2023/08/03 03:20:09;;;;;;;6.30;1.53;;;16.00;99.90;;;;;;5091614;28;20187;-75
2023/08/03 03:22:37;;;;;;;5.87;1.30;;;16.00;99.90;;;;;;5089177;28;20779;-75
2023/08/03 03:25:04;;;;;;;9.83;1.80;;;16.00;99.90;;;;;;5087357;28;20503;-75
2023/08/03 03:27:29;;;;;;;3.37;1.63;;;15.90;99.90;;;;;;5085574;28;20449;-75
2023/08/03 03:29:55;;;;;;;5.83;1.03;;;15.80;99.90;;;;;;5088668;28;20510;-75
2023/08/03 03:32:20;;;;;;;4.00;1.30;;;15.80;99.90;;;;;;5091214;28;20191;-75
2023/08/03 03:34:46;;;;;;;3.50;1.40;;;15.70;99.90;;;;;;5090884;28;20181;-75
2023/08/03 03:37:12;;;;;;;10.37;2.50;;;15.70;99.90;;;;;;5089857;28;20238;-75
2023/08/03 03:39:37;;;;;;;5.30;1.53;;;15.70;99.90;;;;;;5084064;28;20207;-75
2023/08/03 03:42:03;;;;;;;5.03;1.80;;;15.70;99.90;;;;;;5088611;28;20566;-74
2023/08/03 03:44:29;;;;;;;3.97;1.33;;;15.70;99.90;;;;;;5088154;28;20564;-76
2023/08/03 03:46:55;;;;;;;6.20;1.30;;;15.70;99.90;;;;;;5090494;28;20183;-75
2023/08/03 03:49:20;;;;;;;2.37;1.10;;;15.60;99.90;;;;;;5090681;28;20415;-75
2023/08/03 03:51:46;;;;;;;2.03;0.60;;;15.60;99.90;;;;;;5081749;28;20619;-75
2023/08/03 03:54:11;;;;;;;6.53;1.30;;;15.50;99.90;;;;;;5081629;28;20312;-76
2023/08/03 03:56:37;;;;;;;5.10;1.27;;;15.50;99.90;;;;;;5085341;28;20196;-74
2023/08/03 03:59:02;;;;;;;2.93;1.30;;;15.50;99.90;;;;;;5089992;28;20180;-75
2023/08/03 04:01:28;;;;;;;1.40;0.70;;;15.50;99.90;;;;;;5083350;28;20263;-74
2023/08/03 04:03:54;;;;;;;8.63;1.27;;;15.50;99.90;;;;;;5090124;28;20238;-75
2023/08/03 04:06:19;;;;;;;4.83;1.10;;;15.50;99.90;;;;;;5090103;28;20187;-75
2023/08/03 04:08:45;;;;;;;2.40;1.00;;;15.50;99.90;;;;;;5090201;28;20180;-75
2023/08/03 04:11:11;;;;;;;5.70;0.97;;;15.50;99.90;;;;;;5090583;28;20261;-74
2023/08/03 04:13:36;;;;;;;4.80;1.07;;;15.40;99.90;;;;;;5088877;28;20225;-75
2023/08/03 04:16:02;;;;;;;3.10;1.00;;;15.40;99.90;;;;;;5090352;28;20210;-76
2023/08/03 04:18:27;;;;;;;2.43;0.90;;;15.40;99.90;;;;;;5090648;28;20188;-75
2023/08/03 04:20:54;;;;;;;6.73;1.60;;;15.30;99.90;;;;;;5084585;28;21110;-75
2023/08/03 04:23:19;;;;;;;3.83;1.00;;;15.30;99.90;;;;;;5083694;28;20214;-75
2023/08/03 04:25:45;;;;;;;5.63;0.90;;;15.30;99.90;;;;;;5089098;28;20410;-75
2023/08/03 04:28:11;;;;;;;3.70;1.37;;;15.40;99.90;;;;;;5089669;28;20691;-76
2023/08/03 04:30:36;;;;;;;3.20;1.10;;;15.40;99.90;;;;;;5089664;28;20183;-75
2023/08/03 04:33:02;;;;;;;3.33;0.90;;;15.30;99.90;;;;;;5085656;28;20191;-75
2023/08/03 04:35:28;;;;;;;5.10;1.10;;;15.30;99.90;;;;;;5089499;28;20203;-75
2023/08/03 04:37:53;;;;;;;5.40;0.73;;;15.30;99.90;;;;;;5090189;28;20228;-74
2023/08/03 04:40:19;;;;;;;4.03;0.90;;;15.30;99.90;;;;;;5080934;28;20215;-75
2023/08/03 04:42:44;;;;;;;3.13;0.87;;;15.30;99.90;;;;;;5078465;28;20177;-75
2023/08/03 04:45:10;;;;;;;2.13;0.50;;;15.30;99.90;;;;;;5089882;28;20176;-75
2023/08/03 04:47:35;;;;;;;4.50;0.73;;;15.20;99.90;;;;;;5090459;28;20568;-75
2023/08/03 04:50:01;;;;;;;4.80;1.13;;;15.20;99.90;;;;;;5094269;28;20396;-76
2023/08/03 04:52:27;;;;;;;4.23;1.70;;;15.20;99.90;;;;;;5094560;28;20180;-75
2023/08/03 04:54:52;;;;;;;5.13;1.10;;;15.20;99.90;;;;;;5091001;28;20180;-75
2023/08/03 04:57:18;;;;;;;2.70;0.80;;;15.20;99.90;;;;;;5084567;28;20390;-75
2023/08/03 04:59:43;;;;;;;4.10;0.77;;;15.20;99.90;;;;;;5090826;28;20264;-76
2023/08/03 05:02:09;;;;;;;5.23;1.23;;;15.30;99.90;;;;;;5089275;28;20196;-76
2023/08/03 05:04:34;;;;;;;3.10;1.13;;;15.20;99.90;;;;;;5093938;28;20271;-76
2023/08/03 05:07:00;;;;;;;1.40;0.60;;;15.30;99.90;;;;;;5079963;28;20330;-76
2023/08/03 05:09:26;;;;;;;1.50;0.77;;;15.30;99.90;;;;;;5086816;28;20595;-76
2023/08/03 05:11:51;;;;;;;2.80;0.80;;;15.30;99.90;;;;;;5093778;28;20180;-75
2023/08/03 05:14:17;;;;;;;1.40;0.67;;;15.40;99.90;;;;;;5074496;28;20576;-75
2023/08/03 05:16:43;;;;;;;2.47;0.93;;;15.40;99.90;;;;;;5094320;28;20242;-75
2023/08/03 05:19:08;;;;;;;1.50;0.70;;;15.40;99.90;;;;;;5093670;28;20189;-75
2023/08/03 05:21:34;;;;;;;5.47;0.60;;;15.40;99.90;;;;;;5093624;28;20833;-76
2023/08/03 05:23:59;;;;;;;2.60;1.00;;;15.50;99.90;;;;;;5093335;28;20208;-75
2023/08/03 05:26:26;;;;;;;3.43;0.70;;;15.50;99.90;;;;;;5093770;28;20187;-75
2023/08/03 05:28:52;;;;;;;1.67;0.73;;;15.50;99.90;;;;;;5092778;28;20173;-75
2023/08/03 05:31:17;;;;;;;4.37;1.30;;;15.50;99.90;;;;;;5093619;28;20502;-74
2023/08/03 05:33:43;;;;;;;5.00;0.83;;;15.50;99.90;;;;;;5092265;28;20522;-75
2023/08/03 05:36:09;;;;;;;2.23;1.03;;;15.50;99.90;;;;;;5092904;28;20188;-76
2023/08/03 05:38:34;;;;;;;4.50;1.10;;;15.50;99.90;;;;;;5092422;28;20255;-75
2023/08/03 05:41:03;;;;;;;1.83;1.00;;;15.50;99.90;;;;;;5092966;28;20446;-75
2023/08/03 05:43:29;;;;;;;2.67;0.90;;;15.70;99.90;;;;;;5077545;28;20459;-75
2023/08/03 05:46:01;;;;;;;2.90;0.70;;;15.80;99.90;;;;;;5079434;28;20418;-73
2023/08/03 05:48:29;;;;;;;4.03;0.80;;;15.80;99.90;;;;;;5092427;28;20187;-75
2023/08/03 05:50:56;;;;;;;3.40;0.70;;;16.00;99.90;;;;;;5089517;28;20912;-75
2023/08/03 05:53:22;;;;;;;2.37;0.93;;;16.00;99.90;;;;;;5092399;28;20818;-76
2023/08/03 05:55:48;;;;;;;7.13;0.83;;;16.00;99.90;;;;;;5090585;28;20434;-76
2023/08/03 05:58:16;;;;;;;4.60;0.80;;;16.00;99.90;;;;;;5087581;28;20822;-75
2023/08/03 06:00:45;;;;;;;1.40;0.50;;;16.00;99.90;;;;;;5079981;28;20582;-75
2023/08/03 06:03:13;;;;;;;1.60;0.70;;;16.00;99.90;;;;;;5085225;28;20454;-75
2023/08/03 06:05:38;;;;;;;2.30;1.10;;;16.00;99.90;;;;;;5087190;28;20455;-75
2023/08/03 06:08:19;;;;;;;2.53;0.80;;;16.10;99.90;;;;;;5086814;28;20414;-75
2023/08/03 06:10:49;;;;;;;4.10;1.07;;;;;;;;;;5089561;28;20184;-75
2023/08/03 06:13:16;;;;;;;2.33;0.90;;;16.40;99.90;;;;;;5091459;28;20941;-74
2023/08/03 06:15:44;;;;;;;2.97;0.90;;;16.50;99.90;;;;;;5092055;28;20450;-74
2023/08/03 06:18:18;;;;;;;2.17;0.80;;;16.40;99.90;;;;;;5092435;28;20433;-75
2023/08/03 06:20:46;;;;;;;3.40;1.00;;;16.40;99.90;;;;;;5092547;28;20422;-75
2023/08/03 06:23:19;;;;;;;3.10;0.90;;;16.40;99.90;;;;;;5078258;28;20454;-75
2023/08/03 06:25:46;;;;;;;2.60;0.80;;;16.40;99.90;;;;;;5092411;28;20421;-75
2023/08/03 06:28:15;;;;;;;1.50;0.83;;;16.40;99.90;;;;;;5091992;28;20423;-75
2023/08/03 06:30:40;;;;;;;1.57;0.60;;;16.50;99.90;;;;;;5092241;28;20442;-75
2023/08/03 06:33:09;;;;;;;14.23;1.17;;;16.50;99.90;;;;;;5080139;28;20418;-75
2023/08/03 06:35:39;;;;;;;1.83;0.67;;;;;;;;;;5086029;28;20188;-75
2023/08/03 06:38:07;;;;;;;2.80;1.10;;;16.70;99.90;;;;;;5091260;28;20429;-75
2023/08/03 06:40:33;;;;;;;1.40;0.60;;;16.90;99.90;;;;;;5078883;28;20510;-75
2023/08/03 06:43:02;;;;;;;1.70;0.80;;;16.90;99.90;;;;;;5089267;28;20781;-75
2023/08/03 06:45:32;;;;;;;8.40;0.80;;;16.90;99.90;;;;;;5084662;28;20932;-76
2023/08/03 06:48:02;;;;;;;2.83;1.00;;;16.90;99.90;;;;;;5079723;28;20503;-76
2023/08/03 06:50:32;;;;;;;1.57;0.70;;;17.00;99.90;;;;;;5087020;28;20484;-76
2023/08/03 06:52:59;;;;;;;3.43;1.30;;;17.00;99.90;;;;;;5091679;28;20422;-74
2023/08/03 06:55:26;;;;;;;4.60;0.90;;;17.10;99.90;;;;;;5090203;28;20429;-74
2023/08/03 06:57:52;;;;;;;3.10;1.00;;;17.10;99.90;;;;;;5087799;28;20477;-74
2023/08/03 07:00:18;;;;;;;4.17;1.30;;;17.20;99.90;;;;;;5085261;28;20435;-75
2023/08/03 07:02:46;;;;;;;5.43;0.70;;;17.30;99.90;;;;;;5083706;28;20430;-75
2023/08/03 07:05:12;;;;;;;5.87;1.27;;;17.50;99.90;;;;;;5078106;28;20583;-74
2023/08/03 07:07:37;;;;;;;2.90;0.93;;;17.60;99.90;;;;;;5082632;28;20435;-74
2023/08/03 07:10:03;;;;;;;5.37;0.70;;;17.60;99.90;;;;;;5080660;28;20319;-74
2023/08/03 07:12:29;;;;;;;3.20;1.20;;;17.70;99.90;;;;;;5083375;28;20260;-75
2023/08/03 07:14:55;;;;;;;1.57;0.70;;;17.90;99.90;;;;;;5084204;28;21175;-75
2023/08/03 07:17:22;;;;;;;1.70;0.87;;;18.10;99.90;;;;;;5085217;28;20192;-75
2023/08/03 07:19:50;;;;;;;3.57;1.00;;;18.20;99.60;;;;;;5089461;28;20737;-74
2023/08/03 07:22:19;;;;;;;2.33;0.70;;;18.30;99.70;;;;;;5088312;28;20892;-75
2023/08/03 07:24:45;;;;;;;3.13;1.40;;;18.50;99.50;;;;;;5091067;28;20904;-75
2023/08/03 07:27:11;;;;;;;2.60;0.90;;;18.70;98.80;;;;;;5087253;28;20462;-75
2023/08/03 07:29:36;;;;;;;2.33;1.00;;;19.00;98.30;;;;;;5078585;28;20196;-73
2023/08/03 07:32:03;;;;;;;2.57;0.90;;;19.20;97.70;;;;;;5084171;28;20267;-73
2023/08/03 07:34:29;;;;;;;5.87;0.73;;;19.20;97.70;;;;;;5089702;28;20192;-74
2023/08/03 07:36:55;;;;;;;2.27;0.90;;;19.30;97.70;;;;;;5086566;28;20461;-74
2023/08/03 07:39:21;;;;;;;6.13;1.23;;;19.70;97.70;;;;;;5083912;28;20272;-74
2023/08/03 07:41:47;;;;;;;1.97;0.80;;;20.20;96.70;;;;;;5083517;28;20506;-74
2023/08/03 07:44:15;;;;;;;1.70;0.80;;;20.60;96.20;;;;;;5088479;28;21144;-75
2023/08/03 07:46:41;;;;;;;1.47;0.67;;;21.00;95.90;;;;;;5090297;28;20199;-75
2023/08/03 07:49:06;;;;;;;2.53;0.93;;;21.30;94.70;;;;;;5089737;28;20489;-75
2023/08/03 07:51:32;;;;;;;1.93;0.53;;;21.50;94.20;;;;;;5089771;28;20213;-74
2023/08/03 07:53:57;;;;;;;1.80;0.70;;;22.10;93.80;;;;;;5089746;28;20176;-75
2023/08/03 07:56:23;;;;;;;1.50;0.70;;;22.10;93.30;;;;;;5085367;28;20653;-74
2023/08/03 07:58:50;;;;;;;1.70;0.60;;;22.10;93.40;;;;;;5086799;28;20183;-75
2023/08/03 08:01:17;;;;;;;1.70;0.50;;;21.90;92.70;;;;;;5083554;28;20267;-75
2023/08/03 08:03:43;;;;;;;3.23;0.83;;;22.10;93.10;;;;;;5084968;28;20465;-74
2023/08/03 08:06:11;;;;;;;3.83;0.90;;;22.30;92.70;;;;;;5091118;28;20406;-75
2023/08/03 08:08:37;;;;;;;1.60;0.60;;;22.50;91.80;;;;;;5091272;28;20605;-74
2023/08/03 08:11:04;;;;;;;1.57;0.60;;;22.70;91.70;;;;;;5080148;28;20501;-74
2023/08/03 08:13:30;;;;;;;3.73;0.93;;;22.00;92.40;;;;;;5078017;28;20227;-74
2023/08/03 08:16:00;;;;;;;1.40;0.67;;;22.30;91.50;;;;;;5085222;28;21076;-75
2023/08/03 08:18:26;;;;;;;1.80;0.60;;;21.70;92.60;;;;;;5091137;28;20214;-75
2023/08/03 08:21:06;;;;;;;1.47;0.60;;;21.60;93.30;;;;;;5090168;28;20554;-76
2023/08/03 08:23:32;;;;;;;1.43;0.50;;;21.60;94.20;;;;;;5096061;28;20946;-75
2023/08/03 08:25:58;;;;;;;1.60;0.70;;;21.80;92.90;;;;;;5096997;28;20452;-75
2023/08/03 08:28:23;;;;;;;1.73;0.73;;;21.90;92.50;;;;;;5093933;28;20178;-75
2023/08/03 08:30:50;;;;;;;1.50;0.60;;;22.20;92.00;;;;;;5086855;28;20524;-75
2023/08/03 08:33:17;;;;;;;2.07;0.60;;;21.80;92.10;;;;;;5086451;28;20313;-75
2023/08/03 08:35:44;;;;;;;1.40;0.70;;;21.20;92.80;;;;;;5094724;28;20425;-75
2023/08/03 08:38:11;;;;;;;3.83;1.13;;;20.60;94.10;;;;;;5090430;28;20687;-76
2023/08/03 08:40:38;;;;;;;2.80;0.80;;;20.20;94.20;;;;;;5092058;28;20970;-75
2023/08/03 08:43:04;;;;;;;2.80;0.73;;;19.90;94.70;;;;;;5086192;28;20943;-75
2023/08/03 08:45:30;;;;;;;4.23;0.70;;;19.70;94.90;;;;;;5065875;28;20422;-75
2023/08/03 08:47:56;;;;;;;1.50;0.70;;;19.50;95.10;;;;;;5094650;28;20426;-75
2023/08/03 08:50:22;;;;;;;3.13;0.87;;;19.30;95.10;;;;;;5094575;28;20797;-75
2023/08/03 08:52:50;;;;;;;4.17;0.60;;;19.40;95.30;;;;;;5094389;28;20422;-73
2023/08/03 08:55:17;;;;;;;1.73;0.80;;;19.10;95.50;;;;;;5093934;28;20179;-75
2023/08/03 08:57:43;;;;;;;1.60;0.60;;;19.20;96.00;;;;;;5094331;28;20521;-75
2023/08/03 09:00:08;;;;;;;3.93;0.90;;;19.30;95.70;;;;;;5093698;28;20464;-75
2023/08/03 09:02:36;;;;;;;10.13;0.80;;;19.30;95.50;;;;;;5068112;28;20189;-75
2023/08/03 09:05:20;;;;;;;1.97;0.73;;;19.20;95.60;;;;;;5093915;28;20307;-75
2023/08/03 09:08:02;;;;;;;1.60;0.67;;;19.20;96.00;;;;;;5093341;28;20418;-75
2023/08/03 09:10:28;;;;;;;1.43;0.73;;;19.30;95.80;;;;;;5089212;28;20414;-75
2023/08/03 09:12:54;;;;;;;3.60;0.80;;;19.60;94.90;;;;;;5087253;28;20473;-75
2023/08/03 09:15:40;;;;;;;7.50;0.67;;;19.70;95.60;;;;;;5094659;28;20552;-76
2023/08/03 09:18:06;;;;;;;2.67;0.80;;;19.30;95.20;;;;;;5095959;28;20464;-75
2023/08/03 09:20:33;;;;;;;4.50;0.70;;;19.50;95.70;;;;;;5064678;28;20788;-74
2023/08/03 09:22:59;;;;;;;3.93;1.20;;;19.80;95.70;;;;;;5095124;28;21223;-75
2023/08/03 09:25:25;;;;;;;1.80;0.60;;;19.80;95.40;;;;;;5094685;28;20516;-75
2023/08/03 09:27:54;;;;;;;1.30;0.50;;;19.70;95.30;;;;;;5087334;28;20522;-75
2023/08/03 09:30:20;;;;;;;5.53;0.80;;;19.80;94.90;;;;;;5094381;28;20573;-77
2023/08/03 09:32:46;;;;;;;1.63;0.70;;;19.80;95.30;;;;;;5086216;28;20418;-76
2023/08/03 09:35:22;;;;;;;1.30;0.47;;;19.90;95.10;;;;;;5089978;28;20426;-75
2023/08/03 09:37:50;;;;;;;1.50;0.70;;;20.20;94.40;;;;;;5090881;28;20677;-76
2023/08/03 09:40:17;;;;;;;1.73;0.60;;;20.10;94.40;;;;;;5093754;28;20414;-75
2023/08/03 09:42:44;;;;;;;2.70;1.10;;;19.80;94.90;;;;;;5092864;28;20414;-75
2023/08/03 09:45:10;;;;;;;2.47;0.70;;;19.90;95.10;;;;;;5092920;28;20473;-75
2023/08/03 09:47:36;;;;;;;1.40;0.50;;;19.90;94.90;;;;;;5093599;28;20440;-75
2023/08/03 09:50:03;;;;;;;3.77;0.77;;;20.30;95.70;;;;;;5093439;28;20826;-75
2023/08/03 09:52:30;;;;;;;2.43;0.60;;;20.20;95.10;;;;;;5078435;28;20635;-76
2023/08/03 09:55:08;;;;;;;2.43;0.77;;;20.20;95.40;;;;;;5091381;28;20413;-76
2023/08/03 09:57:42;;;;;;;1.60;0.50;;;20.30;94.50;;;;;;5092821;28;20418;-75
2023/08/03 10:00:11;;;;;;;2.70;0.70;;;20.10;94.10;;;;;;5092612;28;20501;-75
2023/08/03 10:03:10;;;;;;;2.73;0.63;;;20.00;94.90;;;;;;5093016;28;20421;-76
2023/08/03 10:05:40;;;;;;;1.60;0.70;;;19.90;94.60;;;;;;5086828;28;20434;-75
2023/08/03 10:08:31;;;;;;;6.10;0.97;;;19.80;94.70;;;;;;5084341;28;20572;-74
2023/08/03 10:11:03;;;;;;;1.80;0.73;;;19.80;94.60;;;;;;5090733;28;20429;-75
2023/08/03 10:13:37;;;;;;;2.70;0.53;;;20.30;94.70;;;;;;5085288;28;20781;-75
2023/08/03 10:16:02;;;;;;;2.80;0.70;;;20.60;94.20;;;;;;5092220;28;20466;-76
2023/08/03 10:18:30;;;;;;;1.90;0.60;;;20.60;93.90;;;;;;5080539;28;20859;-75
2023/08/03 10:20:57;;;;;;;1.87;0.50;;;20.60;94.30;;;;;;5082848;28;20235;-75
2023/08/03 10:23:22;;;;;;;1.93;0.67;;;20.30;94.10;;;;;;5088187;28;20454;-75
2023/08/03 10:25:57;;;;;;;3.10;1.10;;;20.30;94.20;;;;;;5091533;28;20777;-76
2023/08/03 10:28:38;;;;;;;1.20;0.40;;;20.20;94.70;;;;;;5083956;28;20568;-75
2023/08/03 10:31:14;;;;;;;2.07;0.70;;;20.10;94.60;;;;;;5086810;28;20430;-73
2023/08/03 10:33:46;;;;;;;1.70;0.80;;;20.10;94.90;;;;;;5079987;28;20443;-73
2023/08/03 10:36:35;;;;;;;5.13;0.83;;;20.10;95.20;;;;;;5089400;28;20426;-76
2023/08/03 10:39:13;;;;;;;1.30;0.60;;;20.20;95.30;;;;;;5082577;28;20430;-74
2023/08/03 10:41:42;;;;;;;1.63;0.70;;;20.20;94.80;;;;;;5073853;28;20610;-75
2023/08/03 10:44:12;;;;;;;3.10;0.70;;;20.40;95.70;;;;;;5089004;28;20462;-75
2023/08/03 10:46:56;;;;;;;1.30;0.50;;;20.40;94.10;;;;;;5089595;28;20444;-75
2023/08/03 10:49:22;;;;;;;2.30;0.73;;;20.70;94.00;;;;;;5091033;28;21158;-75
2023/08/03 10:51:51;;;;;;;2.43;0.83;;;20.60;94.40;;;;;;5082563;28;20408;-75
2023/08/03 10:54:36;;;;;;;1.27;0.47;;;20.60;94.20;;;;;;5090389;28;20418;-75
2023/08/03 10:57:05;;;;;;;1.77;0.50;;;20.60;93.70;;;;;;5086629;28;20430;-75
2023/08/03 10:59:41;;;;;;;1.90;0.70;;;20.30;94.50;;;;;;5090726;28;20454;-75
2023/08/03 11:02:14;;;;;;;2.37;0.73;;;20.80;95.00;;;;;;5078485;28;20459;-75
2023/08/03 11:04:40;;;;;;;1.93;0.60;;;20.70;94.50;;;;;;5088212;28;20790;-76
2023/08/03 11:07:08;;;;;;;2.47;0.80;;;20.60;95.50;;;;;;5092047;28;20440;-75
2023/08/03 11:09:34;;;;;;;2.90;0.80;;;20.80;94.60;;;;;;5092380;28;20411;-75
2023/08/03 11:12:00;;;;;;;4.30;0.90;;;20.90;94.30;;;;;;5091257;28;20418;-76
2023/08/03 11:14:28;;;;;;;10.73;0.90;;;21.00;94.20;;;;;;5090999;28;20180;-75
2023/08/03 11:16:53;;;;;;;3.60;0.70;;;20.90;94.60;;;;;;5091539;28;20199;-75
2023/08/03 11:19:21;;;;;;;1.40;0.80;;;20.70;94.10;;;;;;5091844;28;20418;-75
2023/08/03 11:21:46;;;;;;;3.00;0.90;;;20.50;94.90;;;;;;5091827;28;20506;-75
2023/08/03 11:24:12;;;;;;;3.23;0.77;;;20.30;95.30;;;;;;5091388;28;20454;-75
2023/08/03 11:26:38;;;;;;;2.47;0.70;;;20.20;95.50;;;;;;5091698;28;20187;-75
2023/08/03 11:29:06;;;;;;;6.50;0.67;;;20.30;95.70;;;;;;5091010;28;20174;-75
2023/08/03 11:31:32;;;;;;;2.30;0.80;;;20.30;95.50;;;;;;5078243;28;20426;-76
2023/08/03 11:33:58;;;;;;;2.57;0.90;;;20.10;95.20;;;;;;5084667;28;20447;-75
2023/08/03 11:36:24;;;;;;;1.77;0.60;;;20.10;95.90;;;;;;5091606;28;20414;-75
2023/08/03 11:38:51;;;;;;;2.13;0.70;;;20.20;96.20;;;;;;5091328;28;20198;-75
2023/08/03 11:41:19;;;;;;;1.20;0.40;;;20.20;96.60;;;;;;5091295;28;20237;-75
2023/08/03 11:43:46;;;;;;;10.47;1.57;;;20.20;95.30;;;;;;5089850;28;20469;-75
2023/08/03 11:46:12;;;;;;;1.30;0.50;;;20.20;95.40;;;;;;5087252;28;20418;-75
2023/08/03 11:48:43;;;;;;;1.97;0.97;;;20.00;95.60;;;;;;5091557;28;20972;-75
2023/08/03 11:51:09;;;;;;;1.60;0.70;;;20.10;95.80;;;;;;5067482;28;20248;-75
2023/08/03 11:53:34;;;;;;;9.87;0.70;;;20.10;95.70;;;;;;5091194;28;20438;-75
2023/08/03 11:56:00;;;;;;;1.40;0.50;;;20.20;96.70;;;;;;5091479;28;20184;-76
2023/08/03 11:58:26;;;;;;;1.30;0.50;;;20.30;95.60;;;;;;5090419;28;20579;-75
2023/08/03 12:01:00;;;;;;;5.97;0.80;;;20.30;95.70;;;;;;5091994;28;20183;-75
2023/08/03 12:03:37;;;;;;;2.43;0.90;;;20.20;96.10;;;;;;5090630;28;20841;-76
2023/08/03 12:06:05;;;;;;;1.80;0.77;;;20.10;94.80;;;;;;5091064;28;20433;-76
2023/08/03 12:08:41;;;;;;;8.70;1.67;;;20.10;94.90;;;;;;5090596;28;20414;-76
2023/08/03 12:11:06;;;;;;;5.93;0.70;;;20.00;95.90;;;;;;5084935;28;20410;-75
2023/08/03 12:13:32;;;;;;;1.90;0.80;;;19.90;95.70;;;;;;5089962;28;20514;-75
2023/08/03 12:15:58;;;;;;;2.47;1.07;;;19.90;97.90;;;;;;5090734;28;20196;-76
2023/08/03 12:18:25;;;;;;;1.73;0.70;;;19.80;97.50;;;;;;5091137;28;20185;-75
2023/08/03 12:20:51;;;;;;;1.40;0.50;;;19.80;97.40;;;;;;5091395;28;20456;-76
2023/08/03 12:23:17;;;;;;;1.97;0.73;;;20.00;96.60;;;;;;5090214;28;20421;-75
2023/08/03 12:25:43;;;;;;;1.30;0.50;;;20.10;97.20;;;;;;5084540;28;20507;-76
2023/08/03 12:28:09;;;;;;;1.20;0.40;;;20.20;97.10;;;;;;5090522;28;20419;-75
2023/08/03 12:30:35;;;;;;;5.83;0.90;;;20.20;96.60;;;;;;5091213;28;20497;-76
2023/08/03 12:33:01;;;;;;;3.70;1.27;;;20.20;96.50;;;;;;5085009;28;20195;-75
2023/08/03 12:35:27;;;;;;;1.67;0.80;;;20.20;95.00;;;;;;5090558;28;20176;-75
2023/08/03 12:37:53;;;;;;;2.70;0.87;;;20.20;95.00;;;;;;5090556;28;20173;-75
2023/08/03 12:40:19;;;;;;;3.30;0.73;;;19.90;97.50;;;;;;5090598;28;20444;-74
2023/08/03 12:42:45;;;;;;;3.00;0.67;;;19.40;99.00;;;;;;5090243;28;20559;-75
2023/08/03 12:45:11;;;;;;;1.90;0.63;;;19.10;99.90;;;;;;5090065;28;20466;-74
2023/08/03 12:47:39;;;;;;;2.87;0.73;;;19.10;99.90;;;;;;5090527;28;20264;-75